createdAt,value
2018-04-15T00:04:13.362Z,95627
2018-04-15T00:06:46.002Z,95625
2018-04-15T00:09:23.506Z,95622
2018-04-15T00:11:55.028Z,95618
2018-04-15T00:14:26.615Z,95620
2018-04-15T00:16:58.135Z,95607
2018-04-15T00:22:56.254Z,95597
2018-04-15T00:25:29.088Z,95586
2018-04-15T00:28:07.097Z,95578
2018-04-15T00:52:33.841Z,95547
2018-04-15T00:55:05.808Z,95546
2018-04-15T00:57:39.634Z,95548
2018-04-15T01:00:20.707Z,95544
2018-04-15T01:06:17.857Z,95542
2018-04-15T01:08:56.447Z,95543
2018-04-15T01:11:44.172Z,95549
2018-04-15T02:22:31.638Z,95483
2018-04-15T02:28:20.118Z,95481
2018-04-15T02:30:51.439Z,95487
2018-04-15T02:33:33.435Z,95483
2018-04-15T02:36:06.230Z,95484
2018-04-15T02:38:44.117Z,95475
2018-04-15T02:41:15.405Z,95481
2018-04-15T02:49:10.745Z,95481
2018-04-15T03:01:34.564Z,95461
2018-04-15T03:04:06.034Z,95465
2018-04-15T03:10:50.944Z,95471
2018-04-15T03:28:12.324Z,95462
2018-04-15T03:49:33.141Z,95465
2018-04-15T04:01:25.873Z,95462
2018-04-15T04:10:44.514Z,95447
2018-04-15T04:13:17.131Z,95442
2018-04-15T04:19:03.328Z,95436
2018-04-15T04:30:46.800Z,95423
2018-04-15T04:33:18.455Z,95424
2018-04-15T04:35:51.389Z,95420
2018-04-15T04:38:26.305Z,95417
2018-04-15T04:41:19.769Z,95410
2018-04-15T04:43:54.987Z,95412
2018-04-15T04:49:48.486Z,95408
2018-04-15T04:52:20.073Z,95401
2018-04-15T04:54:51.376Z,95400
2018-04-15T04:57:22.815Z,95398
2018-04-15T05:03:33.530Z,95384
2018-04-15T05:17:27.538Z,95355
2018-04-15T05:23:22.391Z,95347
2018-04-15T05:25:53.866Z,95353
2018-04-15T05:28:26.248Z,95354
2018-04-15T05:30:58.255Z,95361
2018-04-15T05:33:30.238Z,95360
2018-04-15T05:36:05.521Z,95364
2018-04-15T05:41:54.069Z,95359
2018-04-15T05:44:25.398Z,95364
2018-04-15T05:46:56.569Z,95354
2018-04-15T05:49:27.573Z,95350
2018-04-15T05:51:58.801Z,95340
2018-04-15T05:54:29.889Z,95341
2018-04-15T05:57:01.419Z,95341
2018-04-15T05:59:33.578Z,95341
2018-04-15T06:15:32.494Z,95313
2018-04-15T06:18:12.141Z,95307
2018-04-15T06:30:24.692Z,95307
2018-04-15T06:33:02.500Z,95307
2018-04-15T06:35:34.251Z,95306
2018-04-15T06:38:06.810Z,95298
2018-04-15T06:40:41.156Z,95291
2018-04-15T06:43:12.867Z,95286
2018-04-15T06:45:45.724Z,95288
2018-04-15T06:48:19.847Z,95284
2018-04-15T06:50:53.068Z,95283
2018-04-15T06:53:30.527Z,95281
2018-04-15T06:56:05.966Z,95276
2018-04-15T06:58:38.610Z,95275
2018-04-15T07:01:11.119Z,95272
2018-04-15T07:03:48.480Z,95271
2018-04-15T07:06:23.263Z,95273
2018-04-15T07:09:07.445Z,95276
2018-04-15T07:11:47.446Z,95272
2018-04-15T07:14:23.930Z,95271
2018-04-15T07:17:03.230Z,95274
2018-04-15T07:19:36.137Z,95280
2018-04-15T07:22:08.197Z,95285
2018-04-15T07:24:40.392Z,95287
2018-04-15T07:27:12.078Z,95292
2018-04-15T07:29:43.414Z,95290
2018-04-15T07:32:15.744Z,95293
2018-04-15T07:34:48.346Z,95289
2018-04-15T07:37:24.722Z,95289
2018-04-15T07:40:01.095Z,95275
2018-04-15T07:42:34.845Z,95272
2018-04-15T07:45:09.365Z,95265
2018-04-15T07:48:04.103Z,95263
2018-04-15T07:50:37.917Z,95265
2018-04-15T07:53:09.471Z,95269
2018-04-15T07:55:42.209Z,95267
2018-04-15T07:58:13.288Z,95262
2018-04-15T08:00:44.139Z,95262
2018-04-15T08:03:14.901Z,95261
2018-04-15T08:05:45.823Z,95267
2018-04-15T08:08:16.766Z,95264
2018-04-15T08:10:47.785Z,95267
2018-04-15T08:13:24.152Z,95264
2018-04-15T08:15:56.841Z,95261
2018-04-15T08:18:39.503Z,95263
2018-04-15T08:21:14.529Z,95257
2018-04-15T08:23:55.085Z,95256
2018-04-15T08:29:42.525Z,95254
2018-04-15T08:32:13.739Z,95253
2018-04-15T08:34:46.095Z,95245
2018-04-15T08:37:17.778Z,95241
2018-04-15T08:39:48.795Z,95243
2018-04-15T08:42:23.445Z,95237
2018-04-15T08:44:54.321Z,95233
2018-04-15T08:47:25.327Z,95237
2018-04-15T08:49:58.660Z,95237
2018-04-15T08:52:30.325Z,95229
2018-04-15T08:55:01.341Z,95229
2018-04-15T08:57:33.656Z,95219
2018-04-15T09:00:05.404Z,95214
2018-04-15T09:02:36.226Z,95216
2018-04-15T09:05:13.013Z,95211
2018-04-15T09:07:45.145Z,95209
2018-04-15T09:13:06.262Z,95201
2018-04-15T09:15:43.059Z,95197
2018-04-15T09:18:13.970Z,95198
2018-04-15T09:20:59.907Z,95187
2018-04-15T09:26:28.822Z,95183
2018-04-15T09:28:59.929Z,95174
2018-04-15T09:31:32.345Z,95175
2018-04-15T09:34:03.434Z,95173
2018-04-15T09:36:34.652Z,95167
2018-04-15T09:39:06.638Z,95156
2018-04-15T09:41:37.516Z,95158
2018-04-15T09:57:03.980Z,95153
2018-04-15T09:59:36.268Z,95149
2018-04-15T10:02:07.328Z,95145
2018-04-15T10:04:39.534Z,95149
2018-04-15T10:07:12.198Z,95144
2018-04-15T10:09:44.781Z,95140
2018-04-15T10:12:16.116Z,95146
2018-04-15T10:14:48.052Z,95149
2018-04-15T10:17:19.212Z,95143
2018-04-15T10:19:50.664Z,95142
2018-04-15T10:22:22.276Z,95145
2018-04-15T10:24:53.138Z,95140
2018-04-15T10:27:23.929Z,95135
2018-04-15T10:29:54.704Z,95133
2018-04-15T10:32:25.585Z,95132
2018-04-15T10:34:56.307Z,95124
2018-04-15T10:37:27.336Z,95125
2018-04-15T10:39:57.969Z,95125
2018-04-15T10:42:28.644Z,95124
2018-04-15T10:44:59.346Z,95118
2018-04-15T10:47:30.221Z,95112
2018-04-15T10:50:05.566Z,95113
2018-04-15T10:52:36.208Z,95116
2018-04-15T10:55:06.823Z,95109
2018-04-15T10:57:37.509Z,95113
2018-04-15T11:00:08.055Z,95116
2018-04-15T11:02:38.768Z,95112
2018-04-15T11:05:09.524Z,95109
2018-04-15T11:07:40.269Z,95101
2018-04-15T11:10:10.930Z,95099
2018-04-15T11:12:41.708Z,95098
2018-04-15T11:15:12.269Z,95100
2018-04-15T11:17:42.948Z,95103
2018-04-15T11:20:14.107Z,95097
2018-04-15T11:22:45.438Z,95093
2018-04-15T11:25:16.908Z,95094
2018-04-15T11:27:47.728Z,95087
2018-04-15T11:30:18.525Z,95085
2018-04-15T11:32:49.488Z,95083
2018-04-15T11:35:20.474Z,95084
2018-04-15T11:37:51.604Z,95081
2018-04-15T11:40:22.509Z,95083
2018-04-15T11:51:11.273Z,95072
2018-04-15T11:53:44.713Z,95063
2018-04-15T11:56:15.985Z,95066
2018-04-15T11:58:47.089Z,95067
2018-04-15T12:01:18.352Z,95074
2018-04-15T12:03:49.758Z,95069
2018-04-15T12:06:21.168Z,95071
2018-04-15T12:08:55.439Z,95069
2018-04-15T12:11:32.010Z,95061
2018-04-15T12:14:33.385Z,95055
2018-04-15T12:20:38.759Z,95048
2018-04-15T12:23:24.850Z,95063
2018-04-15T12:26:08.529Z,95053
2018-04-15T12:28:43.122Z,95051
2018-04-15T12:31:24.109Z,95040
2018-04-15T12:34:05.080Z,95041
2018-04-15T12:36:39.989Z,95040
2018-04-15T12:39:15.888Z,95038
2018-04-15T12:41:49.723Z,95036
2018-04-15T12:44:25.990Z,95029
2018-04-15T12:46:58.265Z,95027
2018-04-15T12:49:31.884Z,95025
2018-04-15T12:52:04.944Z,95023
2018-04-15T12:54:37.025Z,95024
2018-04-15T12:57:10.255Z,95023
2018-04-15T12:59:43.960Z,95023
2018-04-15T13:02:16.088Z,95024
2018-04-15T13:04:47.841Z,95018
2018-04-15T13:07:22.276Z,95017
2018-04-15T13:09:59.176Z,95006
2018-04-15T13:12:36.321Z,94999
2018-04-15T13:15:10.936Z,95005
2018-04-15T13:17:47.386Z,95003
2018-04-15T13:20:18.921Z,95001
2018-04-15T13:22:52.321Z,94997
2018-04-15T13:25:26.570Z,95001
2018-04-15T13:28:04.172Z,94995
2018-04-15T13:30:38.952Z,94994
2018-04-15T13:33:10.361Z,94994
2018-04-15T13:35:45.917Z,94990
2018-04-15T13:38:20.792Z,94994
2018-04-15T13:40:55.472Z,94990
2018-04-15T13:43:29.382Z,94978
2018-04-15T13:46:05.599Z,94976
2018-04-15T13:48:38.395Z,94979
2018-04-15T13:51:13.433Z,94973
2018-04-15T13:53:48.000Z,94968
2018-04-15T13:59:45.839Z,94968
2018-04-15T14:02:29.291Z,94957
2018-04-15T14:05:02.754Z,94954
2018-04-15T14:07:33.920Z,94950
2018-04-15T14:10:06.143Z,94944
2018-04-15T14:12:37.578Z,94942
2018-04-15T14:15:08.650Z,94936
2018-04-15T14:17:40.042Z,94930
2018-04-15T14:20:10.942Z,94920
2018-04-15T14:22:42.369Z,94919
2018-04-15T14:25:13.759Z,94919
2018-04-15T14:27:45.010Z,94923
2018-04-15T14:30:16.347Z,94928
2018-04-15T14:32:47.712Z,94931
2018-04-15T14:35:18.759Z,94927
2018-04-15T14:37:50.131Z,94923
2018-04-15T14:40:21.341Z,94927
2018-04-15T14:42:52.792Z,94930
2018-04-15T14:45:24.107Z,94930
2018-04-15T14:47:55.310Z,94930
2018-04-15T14:50:26.718Z,94925
2018-04-15T14:52:57.939Z,94931
2018-04-15T14:55:28.977Z,94918
2018-04-15T14:58:01.400Z,94910
2018-04-15T15:00:33.584Z,94914
2018-04-15T15:03:05.247Z,94919
2018-04-15T15:05:36.728Z,94919
2018-04-15T15:08:08.914Z,94925
2018-04-15T15:10:40.078Z,94928
2018-04-15T15:13:11.432Z,94924
2018-04-15T15:15:42.512Z,94926
2018-04-15T15:18:13.796Z,94930
2018-04-15T15:20:45.075Z,94930
2018-04-15T15:23:16.300Z,94927
2018-04-15T15:25:47.323Z,94928
2018-04-15T15:28:18.271Z,94924
2018-04-15T15:30:49.399Z,94929
2018-04-15T15:33:22.784Z,94936
2018-04-15T15:35:54.354Z,94935
2018-04-15T15:38:26.068Z,94934
2018-04-15T15:40:57.398Z,94931
2018-04-15T15:43:28.471Z,94926
2018-04-15T15:46:00.400Z,94928
2018-04-15T15:48:31.465Z,94922
2018-04-15T15:51:02.757Z,94917
2018-04-15T15:53:34.252Z,94915
2018-04-15T15:56:06.424Z,94913
2018-04-15T15:58:37.647Z,94910
2018-04-15T16:01:09.030Z,94906
2018-04-15T16:03:40.089Z,94912
2018-04-15T16:06:11.193Z,94898
2018-04-15T16:08:42.329Z,94898
2018-04-15T16:11:13.896Z,94892
2018-04-15T16:13:46.224Z,94888
2018-04-15T16:16:17.732Z,94882
2018-04-15T16:18:49.198Z,94878
2018-04-15T16:21:20.489Z,94877
2018-04-15T16:23:52.486Z,94869
2018-04-15T16:26:24.977Z,94871
2018-04-15T16:28:56.746Z,94880
2018-04-15T16:31:28.240Z,94883
2018-04-15T16:33:59.650Z,94872
2018-04-15T16:36:31.630Z,94874
2018-04-15T16:39:03.549Z,94879
2018-04-15T16:41:35.030Z,94883
2018-04-15T16:44:06.443Z,94890
2018-04-15T16:46:37.975Z,94891
2018-04-15T16:49:13.257Z,94897
2018-04-15T16:51:44.762Z,94903
2018-04-15T16:54:21.626Z,94903
2018-04-15T16:56:53.174Z,94903
2018-04-15T16:59:23.938Z,94904
2018-04-15T17:01:55.216Z,94906
2018-04-15T17:04:26.805Z,94896
2018-04-15T17:06:58.457Z,94890
2018-04-15T17:09:29.628Z,94891
2018-04-15T17:12:00.729Z,94890
2018-04-15T17:14:32.610Z,94888
2018-04-15T17:17:03.848Z,94884
2018-04-15T17:19:34.793Z,94888
2018-04-15T17:22:05.998Z,94889
2018-04-15T17:24:37.922Z,94891
2018-04-15T17:27:13.261Z,94895
2018-04-15T17:29:45.510Z,94890
2018-04-15T17:32:16.517Z,94897
2018-04-15T17:34:47.916Z,94905
2018-04-15T17:37:20.841Z,94908
2018-04-15T17:45:26.411Z,94910
2018-04-15T17:47:57.714Z,94927
2018-04-15T17:50:44.732Z,94937
2018-04-15T17:53:16.448Z,94943
2018-04-15T17:55:47.921Z,94943
2018-04-15T17:58:19.689Z,94937
2018-04-15T18:00:50.680Z,94948
2018-04-15T18:03:21.985Z,94950
2018-04-15T18:06:14.862Z,94955
2018-04-15T18:08:45.927Z,94956
2018-04-15T18:11:17.186Z,94958
2018-04-15T18:13:48.426Z,94962
2018-04-15T18:16:19.573Z,94969
2018-04-15T18:18:50.832Z,94965
2018-04-15T18:21:23.883Z,94963
2018-04-15T18:23:55.575Z,94969
2018-04-15T18:26:27.058Z,94975
2018-04-15T18:28:58.301Z,94982
2018-04-15T18:31:30.020Z,94975
2018-04-15T18:34:01.904Z,94977
2018-04-15T18:36:34.382Z,94976
2018-04-15T18:39:07.156Z,94975
2018-04-15T18:41:38.404Z,94976
2018-04-15T18:44:11.839Z,94981
2018-04-15T18:46:43.501Z,94975
2018-04-15T18:49:14.595Z,94970
2018-04-15T18:51:48.512Z,94969
2018-04-15T18:54:19.701Z,94972
2018-04-15T18:56:53.347Z,94973
2018-04-15T18:59:24.848Z,94974
2018-04-15T19:01:56.115Z,94973
2018-04-15T19:04:28.299Z,94973
2018-04-15T19:06:59.627Z,94977
2018-04-15T19:09:30.684Z,94983
2018-04-15T19:12:01.848Z,94985
2018-04-15T19:14:32.549Z,94988
2018-04-15T19:17:03.349Z,95002
2018-04-15T19:19:34.531Z,95001
2018-04-15T19:22:05.304Z,94999
2018-04-15T19:24:36.162Z,94996
2018-04-15T19:27:06.715Z,94992
2018-04-15T19:29:38.224Z,94997
2018-04-15T19:35:23.634Z,94996
2018-04-15T19:41:18.860Z,94991
2018-04-15T19:43:51.403Z,94991
2018-04-15T19:46:22.819Z,94992
2018-04-15T19:48:56.405Z,94990
2018-04-15T19:58:18.516Z,94982
2018-04-15T20:06:37.493Z,94986
2018-04-15T20:09:08.430Z,94983
2018-04-15T20:11:39.657Z,94989
2018-04-15T20:17:07.500Z,94985
2018-04-15T20:19:45.650Z,94988
2018-04-15T20:25:36.641Z,95004
2018-04-15T20:28:09.142Z,95014
2018-04-15T20:30:46.182Z,95019
2018-04-15T20:33:17.695Z,95018
2018-04-15T20:41:57.828Z,95006
2018-04-15T20:44:30.117Z,95003
2018-04-15T20:56:41.195Z,94994
2018-04-15T20:59:12.662Z,94993
2018-04-15T21:01:44.006Z,94989
2018-04-15T21:04:14.852Z,94993
2018-04-15T21:06:46.331Z,94998
2018-04-15T21:19:03.582Z,94981
2018-04-15T21:21:35.035Z,94977
2018-04-15T21:26:54.452Z,94988
2018-04-15T21:29:25.574Z,94990
2018-04-15T21:31:56.939Z,94992
2018-04-15T21:34:31.948Z,95003
2018-04-15T21:37:03.403Z,95000
2018-04-15T21:39:35.040Z,95011
2018-04-15T21:42:06.030Z,95011
2018-04-15T21:44:37.059Z,95009
2018-04-15T21:47:07.932Z,95004
2018-04-15T21:49:38.852Z,94995
2018-04-15T21:52:09.730Z,94995
2018-04-15T21:54:40.581Z,94991
2018-04-15T21:57:11.752Z,94997
2018-04-15T21:59:42.720Z,94996
2018-04-15T22:02:13.624Z,94994
2018-04-15T22:04:44.740Z,94991
2018-04-15T22:07:15.718Z,94995
2018-04-15T22:12:33.902Z,94989
2018-04-15T22:15:05.723Z,94982
2018-04-15T22:17:36.966Z,94975
2018-04-15T22:20:07.879Z,94974
2018-04-15T22:22:43.525Z,94974
2018-04-15T22:25:15.473Z,94970
2018-04-15T22:27:46.448Z,94970
2018-04-15T22:30:17.690Z,94964
2018-04-15T22:32:48.641Z,94960
2018-04-15T22:35:19.699Z,94958
2018-04-15T22:37:50.589Z,94961
2018-04-15T22:40:21.591Z,94959
2018-04-15T22:42:52.720Z,94952
2018-04-15T22:45:23.770Z,94951
2018-04-15T22:47:58.867Z,94949
2018-04-15T22:50:33.928Z,94948
2018-04-15T22:53:05.091Z,94950
2018-04-15T22:55:35.949Z,94957
2018-04-15T22:58:07.073Z,94958
2018-04-15T23:00:37.964Z,94960
2018-04-15T23:03:09.042Z,94950
2018-04-15T23:11:48.875Z,94960
2018-04-15T23:14:20.243Z,94968
2018-04-15T23:16:51.419Z,94966
2018-04-15T23:19:22.953Z,94955
2018-04-15T23:21:54.426Z,94951
2018-04-15T23:24:25.560Z,94955
2018-04-15T23:26:56.857Z,94948
2018-04-15T23:29:27.893Z,94950
2018-04-15T23:31:59.283Z,94947
2018-04-15T23:34:30.363Z,94957
2018-04-15T23:37:02.951Z,94967
2018-04-15T23:39:34.342Z,94967
2018-04-15T23:42:05.490Z,94972
2018-04-15T23:44:37.669Z,94969
2018-04-15T23:47:08.957Z,94961
2018-04-15T23:49:40.231Z,94955
2018-04-15T23:52:11.153Z,94951
2018-04-15T23:54:42.401Z,94947
2018-04-15T23:57:20.710Z,94947
2018-04-15T23:59:52.091Z,94943
